Flight Track Log - Related Links

Times and Time Zones

All times are in EST time to prevent confusion due to time zone crossing. See the BOE22 flight status page for this flight to view local times or setup timezone preferences in your user account.

Time Position Orientation Groundspeed Altitude Reporting Facility
EST Latitude Longitude Course Direction KTS MPH feet Rate Location/Type
Tue 16:21:32 47.4722 -122.2111 141° Southeast 165 190 1,800  Level Seattle Center
Tue 16:22:33 47.4275 -122.1575 141° Southeast 237 273 3,800 8,230 Climbing Seattle Center
Tue 16:24:43 47.5072 -122.1403 North 267 307 28,000 2,921 Climbing Seattle Center
Tue 16:25:42 47.4769 -122.2381 245° Southwest 293 337 13,000 -14,754 Descending Seattle Center
Tue 16:25:44 47.4736 -122.2456 237° Southwest 290 334 13,000 857 Level Seattle Center
Tue 16:26:45 47.4397 -122.3419 243° Southwest 268 308 13,900 1,426 Climbing Seattle Center
Tue 16:27:46 47.4131 -122.4586 251° West 298 343 15,900 2,479 Climbing Seattle Center
Tue 16:28:46 47.3797 -122.5772 247° West 313 360 18,900 3,025 Climbing Seattle Center
Tue 16:29:47 47.3436 -122.7000 247° West 322 371 22,000 2,705 Climbing Seattle Center
Tue 16:30:48 47.3006 -122.8242 243° Southwest 335 386 24,400 2,262 Climbing Seattle Center
Tue 16:31:49 47.2567 -122.9519 243° Southwest 345 397 26,600 1,770 Climbing Seattle Center
Tue 16:32:50 47.2111 -123.0814 243° Southwest 353 406 28,000 1,770 Climbing Seattle Center
Tue 16:33:51 47.1714 -123.2208 247° West 365 420 30,200 2,115 Climbing Seattle Center
Tue 16:34:52 47.1489 -123.3550 256° West 343 395 32,300 1,339 Climbing Seattle Center
Tue 16:35:52 47.1283 -123.4953 258° West 346 398 32,900 694 Climbing Seattle Center
Tue 16:36:53 47.0964 -123.6400 252° West 367 422 33,700 1,426 Climbing Seattle Center
Tue 16:37:54 47.0672 -123.7839 253° West 370 426 35,800 1,623 Climbing Seattle Center
Tue 16:38:55 47.0356 -123.9214 251° West 362 417 37,000 590 Climbing Seattle Center
Tue 16:39:56 47.0058 -124.0581 252° West 358 412 37,000  Level Seattle Center
Tue 16:40:57 46.9719 -124.2286 254° West 362 417 37,000  Level Seattle Center
Tue 16:41:58 46.9433 -124.3717 254° West 364 419 37,000  Level Seattle Center
Tue 16:42:59 46.9144 -124.5125 253° West 364 419 37,000  Level Seattle Center
Tue 16:44:00 46.8881 -124.6550 255° West 363 418 37,000  Level Seattle Center
Tue 16:45:01 46.8606 -124.7994 254° West 366 421 37,000  Level Seattle Center
Tue 16:46:02 46.8319 -124.9475 254° West 373 429 37,000  Level Seattle Center
Tue 16:47:03 46.7750 -125.0617 234° Southwest 393 452 37,000  Level Seattle Center
Tue 16:48:04 46.6508 -125.0211 167° South 476 548 37,000  Level Seattle Center
Tue 16:49:05 46.6103 -124.8100 106° East 548 631 37,000  Level Seattle Center
Tue 16:50:05 46.6567 -124.6128 71° East 531 611 37,000  Level Seattle Center
Tue 16:51:06 46.7111 -124.4172 68° East 526 605 37,000  Level Seattle Center
Tue 16:52:07 46.7642 -124.2275 68° East 518 596 37,000  Level Seattle Center
Tue 16:53:08 46.8172 -124.0361 68° East 514 592 37,000  Level Seattle Center
Tue 16:54:09 46.8825 -123.8078 67° East 510 587 37,000 49 Level Seattle Center
Tue 16:55:10 46.9917 -123.7272 27° Northeast 448 516 37,100  Climbing Seattle Center
Tue 16:56:11 47.1017 -123.6922 12° North 410 472 37,000 -639 Descending Seattle Center
Tue 16:57:12 47.2114 -123.6553 13° North 406 467 35,800 -1,721 Descending Seattle Center
Tue 16:58:13 47.2850 -123.7097 333° Northwest 329 379 33,500 -2,066 Descending Seattle Center
Tue 16:59:14 47.3392 -123.8011 311° West 315 362 31,600 -1,623 Descending Seattle Center
Tue 17:00:15 47.4128 -123.8667 329° Northwest 308 354 30,200 -1,721 Descending Seattle Center
Tue 17:01:16 47.4775 -123.9200 331° Northwest 269 310 28,100 -3,738 Descending Seattle Center
Tue 17:02:17 47.5472 -123.9767 331° Northwest 310 357 22,600 -4,230 Descending Seattle Center
Tue 17:03:18 47.6278 -124.0461 330° Northwest 335 386 19,500 -3,148 Descending Seattle Center
Tue 17:04:19 47.7089 -124.1133 331° Northwest 334 384 16,200 -2,213 Descending Seattle Center
Tue 17:05:20 47.7856 -124.1808 329° Northwest 324 373 15,000 -1,082 Descending Seattle Center
Tue 17:06:21 47.8664 -124.2489 331° Northwest 295 339 14,000 -492 Descending Seattle Center
Tue 17:07:22 47.9308 -124.3047 330° Northwest 279 321 14,000  Level Seattle Center
Tue 17:08:23 47.9931 -124.3656 327° Northwest 272 313 14,000  Level Seattle Center
Tue 17:09:24 48.0567 -124.4292 326° Northwest 273 314 14,000  Level Seattle Center
Tue 17:10:24 48.1192 -124.4936 325° Northwest 274 315 14,000  Level Seattle Center
Tue 17:11:25 48.1697 -124.5381 330° Northwest 229 264 14,000  Level Seattle Center
Tue 17:12:26 48.2053 -124.5844 319° Northwest 216 249 14,000  Level Seattle Center
Tue 17:13:27 48.1506 -124.5794 177° South 218 251 14,000  Level Seattle Center
Tue 17:14:28 48.0981 -124.5511 160° South 211 243 14,000  Level Seattle Center
Tue 17:15:29 48.0467 -124.5247 161° South 203 234 14,000  Level Seattle Center
Tue 17:16:30 47.9967 -124.5053 165° South 194 223 14,000  Level Seattle Center
Tue 17:17:31 47.9503 -124.4869 165° South 184 212 14,000  Level Seattle Center
Tue 17:18:32 47.8997 -124.4664 165° South 183 211 14,000  Level Seattle Center
Tue 17:19:32 47.8397 -124.4467 168° South 202 232 14,000  Level Seattle Center
Tue 17:20:33 47.7567 -124.4194 168° South 242 278 14,000  Level Seattle Center
Tue 17:21:34 47.6822 -124.3922 166° South 273 314 14,000 49 Level Seattle Center
Tue 17:22:35 47.6208 -124.3736 168° South 235 270 14,100 49 Climbing Seattle Center
Tue 17:23:36 47.5786 -124.3575 166° South 171 197 14,100  Level Seattle Center
Tue 17:24:37 47.5328 -124.3436 168° South 166 191 14,100 50 Level Seattle Center
Tue 17:25:37 47.4797 -124.3356 174° South 190 219 14,200  Climbing Seattle Center
Tue 17:26:38 47.4233 -124.3269 174° South 201 231 14,100 148 Descending Seattle Center
Tue 17:27:39 47.3547 -124.3108 171° South 248 285 14,500 197 Climbing Seattle Center
Tue 17:28:40 47.2844 -124.2883 168° South 259 298 14,500 -246 Level Seattle Center
Tue 17:29:41 47.2217 -124.2686 168° South 235 270 14,000 -492 Descending Seattle Center
Tue 17:30:42 47.2011 -124.1828 109° East 241 277 13,500 -248 Descending Seattle Center
Tue 17:31:42 47.1881 -124.0892 102° East 237 273 13,500 -942 Level Seattle Center
Tue 17:32:43 47.1717 -123.9872 103° East 247 284 11,600 -1,377 Descending Seattle Center
Tue 17:33:44 47.1672 -123.8694 93° East 273 314 10,700 -1,033 Descending Seattle Center
Tue 17:34:45 47.2036 -123.7589 64° Northeast 270 311 9,500 -590 Descending Seattle Center
Tue 17:35:46 47.2692 -123.7964 339° North 260 299 9,500 496 Level Seattle Center
Tue 17:36:46 47.3319 -123.8458 332° Northwest 256 295 10,500 496 Climbing Seattle Center
Tue 17:37:47 47.3967 -123.8969 332° Northwest 261 300 10,500  Level Seattle Center
Tue 17:38:48 47.4478 -123.9658 318° Northwest 258 297 10,500  Level Seattle Center
Tue 17:39:49 47.4969 -124.0447 313° West 259 298 10,500 -1,131 Level Seattle Center
Tue 17:40:50 47.5536 -124.1172 319° Northwest 267 307 8,200 -1,091 Descending Seattle Center
Tue 17:41:50 47.6183 -124.1683 332° Northwest 269 310 8,300 -347 Climbing Seattle Center
Tue 17:42:51 47.6878 -124.1614 North 268 308 7,500 -1,377 Descending Seattle Center
Tue 17:43:52 47.7089 -124.2647 287° West 272 313 5,500 -1,475 Descending Seattle Center
Tue 17:44:53 47.7075 -124.3711 269° West 265 305 4,500 -942 Descending Seattle Center
Tue 17:45:53 47.7356 -124.4525 297° West 250 288 3,600 -397 Descending Seattle Center
Tue 17:46:54 47.7892 -124.5108 324° Northwest 243 280 3,700 -49 Climbing Seattle Center
Tue 17:47:55 47.8400 -124.5733 320° Northwest 239 275 3,500 -197 Descending Seattle Center
Tue 17:48:56 47.8914 -124.6350 321° Northwest 238 274 3,300 -98 Descending Seattle Center
Tue 17:49:57 47.9453 -124.6914 325° Northwest 237 273 3,300  Level Seattle Center
Tue 17:50:58 48.0064 -124.7139 346° North 239 275 3,300  Level Seattle Center
Tue 17:51:58 48.0892 -124.7081 North 246 283 3,300 99 Level Seattle Center
Tue 17:52:59 48.1517 -124.7258 349° North 248 285 3,500 148 Climbing Seattle Center
Tue 17:54:00 48.1147 -124.7681 217° Southwest 248 285 3,600 148 Climbing Seattle Center
Tue 17:55:01 48.0469 -124.7306 160° South 259 298 3,800 49 Climbing Seattle Center
Tue 17:56:02 47.9806 -124.6953 160° South 257 296 3,700 -50 Descending Seattle Center
Tue 17:57:02 47.9122 -124.6614 162° South 258 297 3,700  Level Seattle Center
Tue 17:58:03 47.8486 -124.6161 154° Southeast 260 299 3,700  Level Seattle Center
Tue 17:59:04 47.7883 -124.5558 146° Southeast 262 302 3,700 98 Level Seattle Center
Tue 18:00:05 47.7275 -124.5067 151° Southeast 258 297 3,900 344 Climbing Seattle Center
Tue 18:01:06 47.6683 -124.4728 159° South 244 281 4,400 246 Climbing Seattle Center
Tue 18:02:07 47.6133 -124.4289 152° Southeast 238 274 4,400 443 Level Seattle Center
Tue 18:03:08 47.6103 -124.3242 92° East 258 297 5,300 1,131 Climbing Seattle Center
Tue 18:04:09 47.6394 -124.2225 67° East 267 307 6,700 1,488 Climbing Seattle Center
Tue 18:05:09 47.6769 -124.1011 65° Northeast 269 310 8,300 1,289 Climbing Seattle Center
Tue 18:06:10 47.7069 -123.9967 67° East 273 314 9,300 1,033 Climbing Seattle Center
Tue 18:07:11 47.7358 -123.8847 69° East 280 322 10,400 1,082 Climbing Seattle Center
Tue 18:08:12 47.7628 -123.7628 72° East 294 338 11,500 541 Climbing Seattle Center
Tue 18:09:13 47.8014 -123.6239 67° East 361 415 11,500  Level Seattle Center
Tue 18:10:13 47.8475 -123.4506 68° East 425 489 11,500  Level Seattle Center
Tue 18:11:14 47.8856 -123.3053 69° East 382 440 11,500  Level Seattle Center
Tue 18:12:15 47.9222 -123.1761 67° East 343 395 11,500  Level Seattle Center
Tue 18:13:16 47.9547 -123.0503 69° East 326 375 11,500  Level Seattle Center
Tue 18:14:17 47.9872 -122.9308 68° East 313 360 11,500  Level Seattle Center
Tue 18:15:18 48.0167 -122.8150 69° East 299 344 11,500 -98 Level Seattle Center
Tue 18:16:19 48.0489 -122.7028 67° East 294 338 11,300 -793 Descending Seattle Center
Tue 18:17:19 48.0961 -122.6064 54° Northeast 288 331 9,900 -1,479 Descending Seattle Center
Tue 18:17:32 48.1108 -122.5769 53° Northeast 284 327 9,500 -1,440 Descending Seattle Center
Tue 18:17:44 48.1194 -122.5586 55° Northeast 282 325 9,300 -1,250 Descending Seattle Center
Tue 18:18:20 48.1428 -122.5136 52° Northeast 280 322 8,500 -1,612 Descending Seattle Center
Tue 18:18:51 48.1492 -122.4461 82° East 263 303 7,500 -1,770 Descending Seattle Center
Tue 18:19:21 48.1517 -122.4067 85° East 262 302 6,700 -2,073 Descending Seattle Center
Tue 18:19:46 48.1522 -122.3514 89° East 252 290 5,600 -1,770 Descending Seattle Center
Tue 18:20:22 48.1531 -122.3044 88° East 247 284 4,900 -1,200 Descending Seattle Center
Tue 18:20:46 48.1506 -122.2561 94° East 230 265 4,400 -885 Descending Seattle Center
Tue 18:21:23 48.1372 -122.2208 120° Southeast 227 261 4,000 -787 Descending Seattle Center
Tue 18:21:47 48.1100 -122.2356 200° South 195 224 3,600 -885 Descending Seattle Center
Tue 18:22:24 48.0881 -122.2550 211° Southwest 197 227 3,100 -590 Descending Seattle Center
Tue 18:22:48 48.0625 -122.2853 218° Southwest 197 227 3,000 -98 Descending Seattle Center
Tue 18:23:25 48.0422 -122.2883 186° South 186 214 3,000 -492 Level Seattle Center
Tue 18:23:49 48.0144 -122.2889 181° South 168 193 2,500 -1,000 Descending Seattle Center
Tue 18:24:25 47.9875 -122.2869 177° South 158 182 2,000 -800 Descending Seattle Center
Tue 18:24:49 47.9722 -122.2894 186° South 141 162 1,700 -774 Descending Seattle Center
Tue 18:25:27 47.9503 -122.2858 174° South 134 154 1,200 -689 Descending Seattle Center
Tue 18:25:50 47.9367 -122.2892 189° South 132 152 1,000 -400 Descending Seattle Center
Tue 18:26:27 47.9197 -122.2850 171° South 129 148 800 532 Descending Seattle Center
Tue 18:27:09 47.8844 -122.2853 180° South 176 203 1,700 1,672 Climbing Seattle Center
Tue 18:27:28 47.8689 -122.2850 179° South 169 194 2,500 975 Climbing Seattle Center
Tue 18:28:29 47.8203 -122.2422 149° Southeast 236 272 3,000 313 Climbing Seattle Center
Tue 18:29:23 47.8686 -122.2047 27° Northeast 229 264 3,100  Climbing Seattle Center
Tue 18:29:30 47.8733 -122.2028 15° North 237 273 3,000 -109 Descending Seattle Center
Tue 18:30:18 47.9267 -122.2056 358° North 228 262 3,000  Level Seattle Center
Tue 18:30:31 47.9367 -122.2039 North 229 264 3,000  Level Seattle Center
Tue 18:31:25 47.9978 -122.2056 359° North 230 265 3,000  Level Seattle Center
Tue 18:31:32 48.0006 -122.2044 15° North 230 265 3,000 100 Level Seattle Center
Tue 18:32:25 48.0625 -122.2058 359° North 228 262 3,100  Climbing Seattle Center
Tue 18:32:33 48.0636 -122.2044 40° Northeast 229 264 3,000 -98 Descending Seattle Center
Tue 18:33:26 48.0850 -122.2694 296° West 160 184 3,000  Level Seattle Center
Tue 18:33:34 48.0878 -122.2667 34° Northeast 183 211 3,000  Level Seattle Center
Tue 18:34:27 48.0433 -122.2894 199° South 169 194 3,000  Level Seattle Center
Tue 18:34:35 48.0453 -122.2889 11° North 165 190 3,000 -806 Level Seattle Center
Tue 18:35:34 47.9939 -122.2872 179° South 164 189 2,100 -787 Descending Seattle Center
Tue 18:35:36 47.9994 -122.2875 358° North 163 188 2,200 -762 Climbing Seattle Center
Tue 18:36:37 47.9542 -122.2861 179° South 161 185 1,300 -556 Descending Seattle Center
Tue 18:37:24 47.9144 -122.2886 182° South 153 176 1,200 700 Descending Seattle Center
Tue 18:37:37 47.9025 -122.2856 170° South 162 186 2,000 1,612 Climbing Seattle Center
Tue 18:38:31 47.8522 -122.3067 196° South 224 258 3,000 984 Climbing Seattle Center
Tue 18:38:38 47.8467 -122.3114 210° Southwest 209 241 3,000 -636 Level Seattle Center
Tue 18:39:37 47.7967 -122.3506 208° Southwest 210 242 2,300 -689 Descending Seattle Center
Tue 18:39:39 47.7928 -122.3542 212° Southwest 214 246 2,300 -98 Level Seattle Center
Tue 18:40:38 47.7417 -122.3975 210° Southwest 210 242 2,200 -98 Descending Seattle Center
Tue 18:40:40 47.7417 -122.3956 90° East 209 241 2,200  Level Seattle Center
Tue 18:41:33 47.6961 -122.4194 199° South 204 235 2,200 98 Level Seattle Center
Tue 18:41:41 47.6914 -122.4181 169° South 191 220 2,300  Climbing Seattle Center
Tue 18:42:34 47.6469 -122.4006 165° South 192 221 2,200 -98 Descending Seattle Center
Tue 18:42:42 47.6383 -122.3953 158° South 199 229 2,200 -689 Level Seattle Center
Tue 18:43:35 47.6000 -122.3639 151° Southeast 168 193 1,500 -787 Descending Seattle Center
Tue 18:43:43 47.5964 -122.3603 146° Southeast 177 204 1,400 -800 Descending Seattle Center
Tue 18:44:35 47.5664 -122.3364 152° Southeast 134 154 700 -885 Descending Seattle Center
Tue 18:44:44 47.5619 -122.3303 137° Southeast 140 161 500 -590 Descending Seattle Center
Tue 18:45:36 47.5367 -122.3069 148° Southeast 149 171 100 -393 Descending Seattle Center
Tue 18:45:45 47.5342 -122.3053 156° South 139 160 100  Level Seattle Center

Login

Don't have an account? Register now (free) for customized features, flight alerts, and more!